Groton New London Airport
KGON : rendu visible

Aérodrome :











RETROUVEZ-NOUS SUR...

 
LOGIN :

S'inscrire | Disclaimer

   EN    FR    IT 

 









Légende :    VFR   VFR Marginal   IFR   IFR Intensif   IFR Très Intensif
Visi : 
Plafond : 
>= 8 km
>= 3000ft
5 à 8 km
1000 à 3000 ft
1500m à 5 km
500 à 1000 ft
800 à 1500m
200 à 500 ft
< 800m
< 200 ft
Symboles :   Orages  Brouillard  Fortes neiges  Fortes précipitations  Vent > 20 kt






- Altitude de l'aérodrome : 9 ft
- Code IATA : GON


KGON - Groton New London

DERNIER METAR :
  • 261756Z 20007KT 10SM CLR 18/17 A3020 RMK AO2 SLP227 T01780167 10183 20133 58009 $

METARs EXPIRÉS :
  • 261656Z 20007KT 10SM FEW025 17/17 A3022 RMK AO2 SLP234 T01720167 $
  • 261556Z 21005KT 10SM CLR 16/16 A3023 RMK AO2 SLP236 T01610161 $
  • 261546Z 19005KT 10SM SCT022 16/16 A3023 RMK AO2 T01610161 $

TAF KGON
Valide du 26 à 18h jusqu'au 27 à 18h UTC


261728Z 2618/2718 20006KT P6SM SCT020
FM270000 VRB02KT 2SM BR OVC003
FM270200 VRB02KT 1SM BR OVC002
FM271300 17004KT P6SM BKN007 BKN015
FM271500 17006KT P6SM SCT015
FIR KZBW / Amérique du Nord



MET'MAP, la Météo Aéronautique d'un coup d'oeil ! - Copyright ORBIFLY Décembre 2007 - Disclaimer

ORBIFLY MET'MAP TEAM :

Programmation & Développement : Alexandra Zaïnal
Sur une idée originale de : Baudouin d'Aumeries
Assistance à la programmation : Marc-Olivier Méhu
Soutien technique & logistique : Manuel Goepfert

Contact : metmap@orbifly.com




SOURCES & CREDITS :

   NOAA       Earth
Advisory